Back to Top

Language: 

My Weather Underground Personal Weather Station Historical Data with Graphs...

Delerius Weather Station Historical Data
Daily Summary for June 26, 2017 Units:  Metric    English   Both
« Previous Day
Next Day »
Daily Weekly Monthly Yearly Custom
  High: Low: Average:
Temperature: 20.4 °C 7.9 °C 15.3 °C
Dew Point: 10.6 °C 5.9 °C 7.6 °C
Humidity: 90 % 42 % 63 %
Wind Speed: 14.5 km/h 0 km/h 6.8 km/h
Wind Gust: 24.1 km/h - -
Wind:- - WSW
Pressure: 1014.4 hPa 1012.4 hPa -
Precipitation: 0 mm    
Historical Graphs
 
 
Tabular Data for June 26, 2017
Time Temperature Dew Point Pressure Wind Wind Speed Wind Gust Humidity Rainfall Rate (Hourly) solar Conditions
00:00 11.3 °C 8 °C 1012.8 hPa WNW 8 km/h 14.5 km/h 80 % 0 mm 0 W/m2
00:05 11.3 °C 8 °C 1012.8 hPa WNW 6.4 km/h 12.9 km/h 80 % 0 mm 0 W/m2
00:10 11.2 °C 7.9 °C 1013.1 hPa WNW 6.4 km/h 11.3 km/h 80 % 0 mm 0 W/m2
00:15 11.1 °C 7.8 °C 1012.8 hPa WNW 6.4 km/h 11.3 km/h 80 % 0 mm 0 W/m2
00:20 11.1 °C 7.8 °C 1012.8 hPa WNW 8 km/h 14.5 km/h 80 % 0 mm 0 W/m2
00:25 11 °C 7.7 °C 1012.8 hPa WNW 9.7 km/h 14.5 km/h 80 % 0 mm 0 W/m2
00:30 10.9 °C 7.8 °C 1013.1 hPa WNW 8 km/h 14.5 km/h 81 % 0 mm 0 W/m2
00:35 10.8 °C 7.7 °C 1013.1 hPa WNW 8 km/h 12.9 km/h 81 % 0 mm 0 W/m2
00:40 10.8 °C 7.7 °C 1013.1 hPa WNW 6.4 km/h 12.9 km/h 81 % 0 mm 0 W/m2
00:45 10.7 °C 7.6 °C 1013.1 hPa NW 4.8 km/h 11.3 km/h 81 % 0 mm 0 W/m2
00:50 10.7 °C 7.6 °C 1013.1 hPa WNW 6.4 km/h 11.3 km/h 81 % 0 mm 0 W/m2
00:55 10.6 °C 7.5 °C 1013.1 hPa WNW 6.4 km/h 11.3 km/h 81 % 0 mm 0 W/m2
01:00 10.5 °C 7.4 °C 1013.1 hPa WNW 4.8 km/h 11.3 km/h 81 % 0 mm 0 W/m2
01:05 10.4 °C 7.4 °C 1013.1 hPa WNW 4.8 km/h 9.7 km/h 82 % 0 mm 0 W/m2
01:10 10.3 °C 7.3 °C 1013.4 hPa WNW 3.2 km/h 9.7 km/h 82 % 0 mm 0 W/m2
01:16 10.2 °C 7.3 °C 1013.4 hPa WNW 3.2 km/h 11.3 km/h 82 % 0 mm 0 W/m2
01:21 10.2 °C 7.3 °C 1013.4 hPa WNW 6.4 km/h 12.9 km/h 82 % 0 mm 0 W/m2
01:26 10.2 °C 7.3 °C 1013.4 hPa WNW 9.7 km/h 12.9 km/h 82 % 0 mm 0 W/m2
01:31 10.2 °C 7.4 °C 1013.4 hPa WNW 9.7 km/h 14.5 km/h 83 % 0 mm 0 W/m2
01:36 10.2 °C 7.3 °C 1013.4 hPa WNW 6.4 km/h 14.5 km/h 82 % 0 mm 0 W/m2
01:41 10.1 °C 7.2 °C 1013.4 hPa WNW 4.8 km/h 11.3 km/h 82 % 0 mm 0 W/m2
01:46 10.1 °C 7.2 °C 1013.4 hPa WNW 6.4 km/h 12.9 km/h 82 % 0 mm 0 W/m2
01:51 10.1 °C 7.2 °C 1013.4 hPa WNW 6.4 km/h 12.9 km/h 82 % 0 mm 0 W/m2
01:56 10.1 °C 7.2 °C 1013.4 hPa NW 3.2 km/h 9.7 km/h 82 % 0 mm 0 W/m2
02:01 10 °C 7.1 °C 1013.4 hPa Calm   6.4 km/h 82 % 0 mm 0 W/m2
02:06 9.9 °C 6.9 °C 1013.4 hPa Calm   3.2 km/h 82 % 0 mm 0 W/m2
02:11 9.8 °C 6.9 °C 1013.4 hPa Calm   8 km/h 82 % 0 mm 0 W/m2
02:16 9.7 °C 6.9 °C 1013.4 hPa WNW 3.2 km/h 8 km/h 83 % 0 mm 0 W/m2
02:21 9.6 °C 6.8 °C 1013.4 hPa West 3.2 km/h 8 km/h 83 % 0 mm 0 W/m2
02:26 9.4 °C 6.8 °C 1013.4 hPa Calm   6.4 km/h 84 % 0 mm 0 W/m2
02:31 9.3 °C 6.7 °C 1013.4 hPa Calm     84 % 0 mm 0 W/m2
02:36 9.2 °C 6.8 °C 1013.4 hPa Calm   3.2 km/h 85 % 0 mm 0 W/m2
02:41 9.1 °C 6.7 °C 1013.4 hPa Calm   3.2 km/h 85 % 0 mm 0 W/m2
02:46 9.1 °C 6.7 °C 1013.4 hPa Calm   3.2 km/h 85 % 0 mm 0 W/m2
02:51 8.9 °C 6.7 °C 1013.4 hPa Calm   3.2 km/h 86 % 0 mm 0 W/m2
02:56 8.8 °C 6.4 °C 1013.4 hPa Calm     85 % 0 mm 0 W/m2
03:01 8.7 °C 6.5 °C 1013.4 hPa Calm     86 % 0 mm 0 W/m2
03:06 8.6 °C 6.4 °C 1013.4 hPa West 1.6 km/h 8 km/h 86 % 0 mm 0 W/m2
03:11 8.6 °C 6.6 °C 1013.4 hPa West 3.2 km/h 8 km/h 87 % 0 mm 0 W/m2
03:16 8.5 °C 6.4 °C 1013.4 hPa West 3.2 km/h 8 km/h 87 % 0 mm 0 W/m2
03:21 8.4 °C 6.5 °C 1013.4 hPa West 4.8 km/h 8 km/h 88 % 0 mm 0 W/m2
03:26 8.4 °C 6.5 °C 1013.4 hPa West 4.8 km/h 8 km/h 88 % 0 mm 0 W/m2
03:31 8.4 °C 6.5 °C 1013.4 hPa West 3.2 km/h 8 km/h 88 % 0 mm 0 W/m2
03:36 8.4 °C 6.7 °C 1013.4 hPa West 1.6 km/h 6.4 km/h 89 % 0 mm 0 W/m2
03:41 8.4 °C 6.7 °C 1013.4 hPa West 1.6 km/h 6.4 km/h 89 % 0 mm 0 W/m2
03:46 8.3 °C 6.6 °C 1013.4 hPa West 1.6 km/h 8 km/h 89 % 0 mm 0 W/m2
03:51 8.3 °C 6.6 °C 1013.4 hPa West 1.6 km/h 8 km/h 89 % 0 mm 0 W/m2
03:57 8.3 °C 6.6 °C 1013.8 hPa Calm   1.6 km/h 89 % 0 mm 0 W/m2
04:02 8.2 °C 6.5 °C 1013.8 hPa Calm   1.6 km/h 89 % 0 mm 0 W/m2
04:07 8.1 °C 6.4 °C 1013.8 hPa Calm   3.2 km/h 89 % 0 mm 0 W/m2
04:12 8.1 °C 6.4 °C 1013.4 hPa Calm   3.2 km/h 89 % 0 mm 0 W/m2
04:17 8.1 °C 6.6 °C 1013.4 hPa Calm   1.6 km/h 90 % 0 mm 0 W/m2
04:22 8.1 °C 6.6 °C 1013.4 hPa Calm   1.6 km/h 90 % 0 mm 0 W/m2
04:27 8.1 °C 6.6 °C 1013.8 hPa Calm     90 % 0 mm 0 W/m2
04:32 8 °C 6.4 °C 1013.4 hPa Calm     90 % 0 mm 0 W/m2
04:37 7.9 °C 6.3 °C 1013.4 hPa Calm   3.2 km/h 90 % 0 mm 0 W/m2
04:42 7.9 °C 6.3 °C 1013.4 hPa West 3.2 km/h 8 km/h 90 % 0 mm 5 W/m2
04:47 7.9 °C 6.3 °C 1013.4 hPa West 4.8 km/h 9.7 km/h 90 % 0 mm 7 W/m2
04:52 8 °C 6.4 °C 1013.8 hPa WNW 3.2 km/h 9.7 km/h 90 % 0 mm 7 W/m2
04:57 8 °C 6.4 °C 1013.4 hPa WNW 1.6 km/h 8 km/h 90 % 0 mm 9 W/m2
05:02 7.9 °C 6.3 °C 1013.4 hPa WNW 1.6 km/h 6.4 km/h 90 % 0 mm 11 W/m2
05:07 7.9 °C 6.3 °C 1013.4 hPa WNW 3.2 km/h 6.4 km/h 90 % 0 mm 12 W/m2
05:12 7.9 °C 6.3 °C 1013.8 hPa WNW 3.2 km/h 8 km/h 90 % 0 mm 16 W/m2
05:17 7.9 °C 6.3 °C 1013.8 hPa WNW 4.8 km/h 8 km/h 90 % 0 mm 18 W/m2
05:22 8 °C 6.4 °C 1013.8 hPa WNW 4.8 km/h 8 km/h 90 % 0 mm 21 W/m2
05:27 8 °C 6.4 °C 1013.8 hPa WNW 4.8 km/h 8 km/h 90 % 0 mm 25 W/m2
05:32 8.1 °C 6.6 °C 1013.8 hPa WNW 4.8 km/h 8 km/h 90 % 0 mm 28 W/m2
05:37 8.2 °C 6.7 °C 1013.8 hPa WNW 4.8 km/h 9.7 km/h 90 % 0 mm 30 W/m2
05:47 8.3 °C 6.8 °C 1013.8 hPa WNW 4.8 km/h 9.7 km/h 90 % 0 mm 28 W/m2
05:52 8.4 °C 6.8 °C 1013.8 hPa WNW 4.8 km/h 9.7 km/h 90 % 0 mm 28 W/m2
05:57 8.6 °C 7.1 °C 1013.8 hPa NW 4.8 km/h 8 km/h 90 % 0 mm 58 W/m2
06:02 8.8 °C 7.2 °C 1013.8 hPa NW 4.8 km/h 8 km/h 90 % 0 mm 113 W/m2
06:08 9.1 °C 7.4 °C 1013.8 hPa NW 4.8 km/h 8 km/h 89 % 0 mm 123 W/m2
06:13 9.3 °C 7.6 °C 1013.8 hPa NW 4.8 km/h 8 km/h 89 % 0 mm 70 W/m2
06:18 9.6 °C 7.7 °C 1013.8 hPa WNW 3.2 km/h 8 km/h 88 % 0 mm 40 W/m2
06:23 9.8 °C 7.9 °C 1013.8 hPa WNW 4.8 km/h 9.7 km/h 88 % 0 mm 49 W/m2
06:28 10.1 °C 8.1 °C 1013.8 hPa WNW 6.4 km/h 9.7 km/h 87 % 0 mm 51 W/m2
06:33 10.3 °C 8.1 °C 1013.8 hPa WNW 8 km/h 12.9 km/h 86 % 0 mm 44 W/m2
06:38 10.5 °C 8.1 °C 1013.8 hPa WNW 8 km/h 12.9 km/h 85 % 0 mm 44 W/m2
06:43 10.7 °C 8.3 °C 1014.1 hPa WNW 8 km/h 12.9 km/h 85 % 0 mm 49 W/m2
06:48 11 °C 8.2 °C 1014.1 hPa WNW 9.7 km/h 16.1 km/h 83 % 0 mm 47 W/m2
06:53 11.2 °C 8.2 °C 1014.1 hPa WNW 9.7 km/h 16.1 km/h 82 % 0 mm 46 W/m2
06:58 11.4 °C 8.1 °C 1014.1 hPa WNW 9.7 km/h 16.1 km/h 80 % 0 mm 42 W/m2
07:03 11.7 °C 8.2 °C 1014.1 hPa WNW 11.3 km/h 16.1 km/h 79 % 0 mm 42 W/m2
07:08 11.8 °C 8.1 °C 1014.1 hPa WNW 11.3 km/h 19.3 km/h 78 % 0 mm 42 W/m2
07:13 12.1 °C 8.2 °C 1014.1 hPa WNW 11.3 km/h 19.3 km/h 77 % 0 mm 113 W/m2
07:18 12.3 °C 8.4 °C 1014.1 hPa WNW 11.3 km/h 17.7 km/h 77 % 0 mm 302 W/m2
07:23 12.6 °C 8.5 °C 1014.1 hPa WNW 9.7 km/h 17.7 km/h 76 % 0 mm 313 W/m2
07:28 12.9 °C 8.6 °C 1014.1 hPa WNW 9.7 km/h 17.7 km/h 75 % 0 mm 327 W/m2
07:33 13.4 °C 8.8 °C 1014.1 hPa WNW 11.3 km/h 17.7 km/h 74 % 0 mm 345 W/m2
07:38 13.7 °C 8.9 °C 1014.1 hPa WNW 11.3 km/h 17.7 km/h 73 % 0 mm 352 W/m2
07:43 14.1 °C 9.1 °C 1014.1 hPa NW 8 km/h 16.1 km/h 72 % 0 mm 360 W/m2
07:48 14.5 °C 9.1 °C 1014.1 hPa NW 8 km/h 14.5 km/h 70 % 0 mm 376 W/m2
07:53 14.7 °C 8.8 °C 1014.1 hPa NW 9.7 km/h 16.1 km/h 68 % 0 mm 390 W/m2
07:58 14.9 °C 8.8 °C 1014.1 hPa WNW 9.7 km/h 16.1 km/h 67 % 0 mm 411 W/m2
08:03 15.2 °C 8.9 °C 1014.1 hPa NW 8 km/h 16.1 km/h 66 % 0 mm 411 W/m2
08:08 15.4 °C 8.8 °C 1014.1 hPa NW 8 km/h 17.7 km/h 65 % 0 mm 436 W/m2
08:09 15.4 °C 8.8 °C 1014.1 hPa NW 8 km/h 17.7 km/h 65 % 0 mm 436 W/m2
08:14 15.7 °C 8.9 °C 1014.1 hPa NW 6.4 km/h 17.7 km/h 64 % 0 mm 450 W/m2
08:19 15.9 °C 8.6 °C 1014.1 hPa NW 8 km/h 20.9 km/h 62 % 0 mm 462 W/m2
08:24 16.1 °C 8.8 °C 1014.1 hPa WNW 8 km/h 20.9 km/h 62 % 0 mm 480 W/m2
08:29 16.2 °C 8.7 °C 1014.1 hPa WNW 9.7 km/h 19.3 km/h 61 % 0 mm 489 W/m2
08:34 16.2 °C 8.2 °C 1014.1 hPa WNW 11.3 km/h 19.3 km/h 59 % 0 mm 499 W/m2
08:39 16.3 °C 8 °C 1014.1 hPa NW 11.3 km/h 17.7 km/h 58 % 0 mm 517 W/m2
08:44 16.5 °C 8.2 °C 1014.4 hPa NW 11.3 km/h 20.9 km/h 58 % 0 mm 527 W/m2
08:49 16.6 °C 8.1 °C 1014.1 hPa NW 11.3 km/h 20.9 km/h 57 % 0 mm 538 W/m2
08:54 16.9 °C 8.1 °C 1014.1 hPa NW 11.3 km/h 19.3 km/h 56 % 0 mm 554 W/m2
08:59 17.1 °C 8.5 °C 1014.1 hPa NW 9.7 km/h 19.3 km/h 57 % 0 mm 566 W/m2
09:04 17.2 °C 8.3 °C 1014.1 hPa WNW 9.7 km/h 19.3 km/h 56 % 0 mm 580 W/m2
09:09 17.3 °C 7.9 °C 1014.1 hPa WNW 11.3 km/h 22.5 km/h 54 % 0 mm 619 W/m2
09:15 17.4 °C 8 °C 1014.1 hPa NW 11.3 km/h 22.5 km/h 54 % 0 mm 659 W/m2
09:20 17.4 °C 7.7 °C 1014.1 hPa WNW 9.7 km/h 20.9 km/h 53 % 0 mm 540 W/m2
09:25 17.4 °C 7.4 °C 1014.1 hPa WNW 11.3 km/h 20.9 km/h 52 % 0 mm 654 W/m2
09:30 17.4 °C 7.7 °C 1014.1 hPa West 11.3 km/h 20.9 km/h 53 % 0 mm 700 W/m2
09:35 17.8 °C 7.8 °C 1014.1 hPa WNW 8 km/h 19.3 km/h 52 % 0 mm 828 W/m2
09:40 18.1 °C 7.5 °C 1014.1 hPa WNW 8 km/h 17.7 km/h 50 % 0 mm 329 W/m2
09:45 17.9 °C 7.3 °C 1014.1 hPa WNW 11.3 km/h 19.3 km/h 50 % 0 mm 295 W/m2
09:50 17.6 °C 7.6 °C 1014.1 hPa WNW 12.9 km/h 22.5 km/h 52 % 0 mm 229 W/m2
09:56 17.3 °C 7.6 °C 1014.1 hPa WNW 11.3 km/h 22.5 km/h 53 % 0 mm 216 W/m2
10:01 17.1 °C 7.4 °C 1014.1 hPa WNW 9.7 km/h 19.3 km/h 53 % 0 mm 267 W/m2
10:06 17.2 °C 7.6 °C 1014.1 hPa WNW 9.7 km/h 14.5 km/h 53 % 0 mm 842 W/m2
10:11 17.4 °C 6.9 °C 1014.1 hPa WNW 11.3 km/h 24.1 km/h 50 % 0 mm 722 W/m2
10:16 17.6 °C 7.1 °C 1014.1 hPa WNW 14.5 km/h 24.1 km/h 50 % 0 mm 649 W/m2
10:21 17.7 °C 7.2 °C 1014.1 hPa WNW 11.3 km/h 19.3 km/h 50 % 0 mm 782 W/m2
10:26 17.8 °C 7.2 °C 1014.1 hPa West 8 km/h 20.9 km/h 50 % 0 mm 800 W/m2
10:31 17.9 °C 7 °C 1014.1 hPa WSW 11.3 km/h 20.9 km/h 49 % 0 mm 793 W/m2
10:36 18 °C 6.5 °C 1014.1 hPa West 12.9 km/h 19.3 km/h 47 % 0 mm 190 W/m2
10:41 18.1 °C 6.6 °C 1014.1 hPa WNW 11.3 km/h 22.5 km/h 47 % 0 mm 752 W/m2
10:46 18.3 °C 6.8 °C 1014.1 hPa WNW 11.3 km/h 22.5 km/h 47 % 0 mm 807 W/m2
10:51 18.6 °C 7.1 °C 1014.1 hPa WNW 9.7 km/h 22.5 km/h 47 % 0 mm 949 W/m2
10:56 18.8 °C 6.3 °C 1014.1 hPa NW 9.7 km/h 16.1 km/h 44 % 0 mm 225 W/m2
11:01 18.8 °C 6.6 °C 1014.1 hPa NW 11.3 km/h 22.5 km/h 45 % 0 mm 236 W/m2
11:06 18.4 °C 5.9 °C 1014.1 hPa WNW 11.3 km/h 22.5 km/h 44 % 0 mm 250 W/m2
11:11 18.4 °C 6.2 °C 1014.1 hPa WNW 11.3 km/h 22.5 km/h 45 % 0 mm 1004 W/m2
11:16 18.4 °C 6.2 °C 1014.1 hPa WNW 9.7 km/h 16.1 km/h 45 % 0 mm 276 W/m2
11:21 18.2 °C 6.1 °C 1014.1 hPa WNW 9.7 km/h 22.5 km/h 45 % 0 mm 378 W/m2
11:26 18.1 °C 6.6 °C 1014.1 hPa West 11.3 km/h 22.5 km/h 47 % 0 mm 436 W/m2
11:31 18.2 °C 7 °C 1014.1 hPa WNW 11.3 km/h 17.7 km/h 48 % 0 mm 294 W/m2
11:36 18.3 °C 6.8 °C 1014.1 hPa WNW 11.3 km/h 19.3 km/h 47 % 0 mm 352 W/m2
11:41 18.4 °C 6.9 °C 1014.1 hPa WNW 12.9 km/h 19.3 km/h 47 % 0 mm 1141 W/m2
11:46 18.6 °C 6.7 °C 1014.1 hPa West 11.3 km/h 19.3 km/h 46 % 0 mm 422 W/m2
11:51 18.6 °C 7.1 °C 1014.1 hPa West 9.7 km/h 14.5 km/h 47 % 0 mm 378 W/m2
11:56 18.5 °C 6.9 °C 1014.1 hPa West 9.7 km/h 19.3 km/h 47 % 0 mm 489 W/m2
12:01 18.7 °C 6.8 °C 1014.1 hPa WNW 9.7 km/h 19.3 km/h 46 % 0 mm 475 W/m2
12:06 18.7 °C 7.2 °C 1014.1 hPa WNW 11.3 km/h 22.5 km/h 47 % 0 mm 554 W/m2
12:11 18.7 °C 6.8 °C 1014.1 hPa WNW 11.3 km/h 22.5 km/h 46 % 0 mm 367 W/m2
12:16 18.7 °C 7.2 °C 1014.1 hPa WNW 8 km/h 20.9 km/h 47 % 0 mm 390 W/m2
12:21 18.8 °C 6.9 °C 1014.1 hPa West 8 km/h 17.7 km/h 46 % 0 mm 1141 W/m2
12:26 18.9 °C 6.4 °C 1014.1 hPa WNW 6.4 km/h 17.7 km/h 44 % 0 mm 1081 W/m2
12:28 18.9 °C 6.4 °C 1014.1 hPa WNW 6.4 km/h 17.7 km/h 44 % 0 mm 1081 W/m2
12:33 19 °C 6.4 °C 1014.1 hPa West 3.2 km/h 12.9 km/h 44 % 0 mm 462 W/m2
12:38 19.1 °C 6.6 °C 1014.1 hPa West 6.4 km/h 14.5 km/h 44 % 0 mm 506 W/m2
12:43 19.4 °C 6.5 °C 1014.1 hPa West 8 km/h 14.5 km/h 43 % 0 mm 742 W/m2
12:48 19.7 °C 7.4 °C 1014.1 hPa WNW 8 km/h 19.3 km/h 45 % 0 mm 1090 W/m2
12:53 19.9 °C 6.9 °C 1013.8 hPa West 11.3 km/h 20.9 km/h 43 % 0 mm 339 W/m2
12:58 19.4 °C 6.8 °C 1013.8 hPa WSW 9.7 km/h 20.9 km/h 44 % 0 mm 385 W/m2
13:03 19.2 °C 6.9 °C 1013.8 hPa West 8 km/h 17.7 km/h 45 % 0 mm 596 W/m2
13:08 19.5 °C 6.9 °C 1013.8 hPa WNW 8 km/h 17.7 km/h 44 % 0 mm 381 W/m2
13:13 19.7 °C 7.1 °C 1013.8 hPa WNW 6.4 km/h 12.9 km/h 44 % 0 mm 343 W/m2
13:18 19.7 °C 6.8 °C 1013.8 hPa West 8 km/h 20.9 km/h 43 % 0 mm 325 W/m2
13:23 19.5 °C 6.9 °C 1013.8 hPa WNW 8 km/h 20.9 km/h 44 % 0 mm 424 W/m2
13:28 19.5 °C 6.9 °C 1013.8 hPa WNW 8 km/h 17.7 km/h 44 % 0 mm 875 W/m2
13:33 19.4 °C 6.8 °C 1013.8 hPa West 11.3 km/h 20.9 km/h 44 % 0 mm 408 W/m2
13:38 19.1 °C 6.6 °C 1013.8 hPa WSW 11.3 km/h 20.9 km/h 44 % 0 mm 510 W/m2
13:43 19.4 °C 7.2 °C 1013.8 hPa West 8 km/h 19.3 km/h 45 % 0 mm 364 W/m2
13:48 19.6 °C 6.7 °C 1013.8 hPa WNW 8 km/h 14.5 km/h 43 % 0 mm 330 W/m2
13:53 19.6 °C 7 °C 1013.8 hPa WNW 8 km/h 16.1 km/h 44 % 0 mm 439 W/m2
13:58 19.7 °C 6.4 °C 1013.8 hPa WNW 4.8 km/h 16.1 km/h 42 % 0 mm 413 W/m2
14:03 19.7 °C 6.8 °C 1013.8 hPa NW 4.8 km/h 16.1 km/h 43 % 0 mm 352 W/m2
14:08 19.7 °C 6.8 °C 1013.8 hPa West 9.7 km/h 19.3 km/h 43 % 0 mm 468 W/m2
14:13 19.6 °C 6.7 °C 1013.4 hPa West 9.7 km/h 20.9 km/h 43 % 0 mm 464 W/m2
14:18 19.5 °C 6.9 °C 1013.4 hPa WSW 9.7 km/h 20.9 km/h 44 % 0 mm 671 W/m2
14:23 19.4 °C 6.8 °C 1013.4 hPa WSW 12.9 km/h 22.5 km/h 44 % 0 mm 425 W/m2
14:28 19.6 °C 7 °C 1013.4 hPa WSW 12.9 km/h 22.5 km/h 44 % 0 mm 731 W/m2
14:33 19.7 °C 7.1 °C 1013.4 hPa West 9.7 km/h 17.7 km/h 44 % 0 mm 376 W/m2
14:38 19.7 °C 6.8 °C 1013.4 hPa West 9.7 km/h 17.7 km/h 43 % 0 mm 350 W/m2
14:43 19.8 °C 7.2 °C 1013.4 hPa WNW 8 km/h 12.9 km/h 44 % 0 mm 373 W/m2
14:48 19.7 °C 6.8 °C 1013.4 hPa WSW 6.4 km/h 16.1 km/h 43 % 0 mm 475 W/m2
14:53 19.6 °C 7 °C 1013.4 hPa WNW 8 km/h 16.1 km/h 44 % 0 mm 422 W/m2
14:58 19.8 °C 7.2 °C 1013.4 hPa NW 8 km/h 16.1 km/h 44 % 0 mm 868 W/m2
15:03 19.7 °C 6.4 °C 1013.4 hPa West 8 km/h 16.1 km/h 42 % 0 mm 343 W/m2
15:08 19.6 °C 6.7 °C 1013.4 hPa West 4.8 km/h 12.9 km/h 43 % 0 mm 355 W/m2
15:13 19.7 °C 6.8 °C 1013.4 hPa West 6.4 km/h 14.5 km/h 43 % 0 mm 339 W/m2
15:18 19.7 °C 7.1 °C 1013.4 hPa West 8 km/h 14.5 km/h 44 % 0 mm 330 W/m2
15:23 19.8 °C 6.8 °C 1013.4 hPa WNW 6.4 km/h 11.3 km/h 43 % 0 mm 343 W/m2
15:28 19.8 °C 6.8 °C 1013.4 hPa West 4.8 km/h 11.3 km/h 43 % 0 mm 378 W/m2
15:33 19.8 °C 7.2 °C 1013.4 hPa West 6.4 km/h 20.9 km/h 44 % 0 mm 680 W/m2
15:38 19.9 °C 7.3 °C 1013.4 hPa West 8 km/h 20.9 km/h 44 % 0 mm 489 W/m2
15:43 19.9 °C 6.9 °C 1013.4 hPa West 4.8 km/h 14.5 km/h 43 % 0 mm 322 W/m2
15:48 19.9 °C 6.9 °C 1013.4 hPa WSW 3.2 km/h 9.7 km/h 43 % 0 mm 366 W/m2
15:53 19.9 °C 6.9 °C 1013.4 hPa WSW 4.8 km/h 11.3 km/h 43 % 0 mm 468 W/m2
15:58 19.8 °C 6.5 °C 1013.4 hPa WSW 6.4 km/h 11.3 km/h 42 % 0 mm 429 W/m2
16:03 19.8 °C 7.2 °C 1013.4 hPa WSW 3.2 km/h 11.3 km/h 44 % 0 mm 394 W/m2
16:08 19.9 °C 6.9 °C 1013.4 hPa WSW 3.2 km/h 14.5 km/h 43 % 0 mm 455 W/m2
16:13 19.7 °C 6.8 °C 1013.4 hPa WSW 3.2 km/h 14.5 km/h 43 % 0 mm 429 W/m2
16:18 19.8 °C 7.2 °C 1013.4 hPa WNW 3.2 km/h 11.3 km/h 44 % 0 mm 408 W/m2
16:24 20 °C 7.1 °C 1013.4 hPa WNW 4.8 km/h 11.3 km/h 43 % 0 mm 490 W/m2
16:29 20.1 °C 6.8 °C 1013.4 hPa West 3.2 km/h 11.3 km/h 42 % 0 mm 339 W/m2
16:33 20.1 °C 6.8 °C 1013.4 hPa WSW 3.2 km/h 8 km/h 42 % 0 mm 359 W/m2
16:39 19.9 °C 6.6 °C 1013.1 hPa WSW 3.2 km/h 8 km/h 42 % 0 mm 432 W/m2
16:44 19.7 °C 6.8 °C 1013.1 hPa SW 1.6 km/h 8 km/h 43 % 0 mm 425 W/m2
16:49 19.8 °C 7.2 °C 1013.1 hPa WSW 4.8 km/h 11.3 km/h 44 % 0 mm 413 W/m2
16:54 20 °C 7.1 °C 1013.1 hPa WSW 4.8 km/h 11.3 km/h 43 % 0 mm 387 W/m2
16:59 20.2 °C 7.6 °C 1013.1 hPa WSW 3.2 km/h 12.9 km/h 44 % 0 mm 353 W/m2
17:04 20.3 °C 7.7 °C 1013.1 hPa West 4.8 km/h 12.9 km/h 44 % 0 mm 357 W/m2
17:09 20.4 °C 7.4 °C 1013.1 hPa WNW 3.2 km/h 9.7 km/h 43 % 0 mm 388 W/m2
17:14 20.4 °C 7.1 °C 1013.1 hPa WNW 3.2 km/h 8 km/h 42 % 0 mm 355 W/m2
17:19 20.3 °C 7.3 °C 1013.1 hPa West 4.8 km/h 9.7 km/h 43 % 0 mm 322 W/m2
17:24 20.2 °C 7.2 °C 1013.1 hPa West 3.2 km/h 9.7 km/h 43 % 0 mm 392 W/m2
17:29 20.3 °C 6.9 °C 1013.1 hPa West 1.6 km/h 8 km/h 42 % 0 mm 272 W/m2
17:34 20.3 °C 7.3 °C 1013.1 hPa SW 3.2 km/h 11.3 km/h 43 % 0 mm 313 W/m2
17:39 20 °C 7.7 °C 1013.1 hPa SSW 4.8 km/h 11.3 km/h 45 % 0 mm 295 W/m2
17:44 19.8 °C 7.5 °C 1013.1 hPa SSW 6.4 km/h 9.7 km/h 45 % 0 mm 294 W/m2
17:49 19.8 °C 7.2 °C 1013.1 hPa SW 4.8 km/h 9.7 km/h 44 % 0 mm 304 W/m2
17:54 19.8 °C 7.2 °C 1013.1 hPa SW 3.2 km/h 8 km/h 44 % 0 mm 272 W/m2
17:59 19.8 °C 7.2 °C 1012.8 hPa WSW 3.2 km/h 9.7 km/h 44 % 0 mm 271 W/m2
18:04 19.6 °C 7.3 °C 1012.8 hPa SW 3.2 km/h 9.7 km/h 45 % 0 mm 308 W/m2
18:09 19.6 °C 7.7 °C 1012.8 hPa SW 3.2 km/h 9.7 km/h 46 % 0 mm 290 W/m2
18:14 19.8 °C 7.5 °C 1012.8 hPa WSW 3.2 km/h 8 km/h 45 % 0 mm 279 W/m2
18:19 19.9 °C 7.6 °C 1012.8 hPa West 3.2 km/h 8 km/h 45 % 0 mm 257 W/m2
18:24 19.8 °C 7.5 °C 1012.8 hPa West 1.6 km/h 8 km/h 45 % 0 mm 237 W/m2
18:29 19.7 °C 7.4 °C 1012.8 hPa WSW 1.6 km/h 6.4 km/h 45 % 0 mm 234 W/m2
18:34 19.6 °C 7.3 °C 1012.8 hPa Calm   4.8 km/h 45 % 0 mm 281 W/m2
18:39 19.6 °C 7.7 °C 1012.8 hPa NE 1.6 km/h 8 km/h 46 % 0 mm 269 W/m2
18:44 19.7 °C 7.4 °C 1012.8 hPa NE 1.6 km/h 8 km/h 45 % 0 mm 234 W/m2
18:45 19.7 °C 7.4 °C 1012.8 hPa NE 1.6 km/h 8 km/h 45 % 0 mm 234 W/m2
18:50 19.7 °C 7.4 °C 1012.8 hPa NE 1.6 km/h 6.4 km/h 45 % 0 mm 267 W/m2
18:55 19.7 °C 7.4 °C 1012.8 hPa Calm   3.2 km/h 45 % 0 mm 214 W/m2
19:00 19.7 °C 7.7 °C 1012.8 hPa Calm   1.6 km/h 46 % 0 mm 241 W/m2
19:05 19.7 °C 7.4 °C 1012.8 hPa Calm   6.4 km/h 45 % 0 mm 250 W/m2
19:10 19.8 °C 7.5 °C 1012.8 hPa NE 1.6 km/h 6.4 km/h 45 % 0 mm 225 W/m2
19:11 19.7 °C 7.1 °C 1012.8 hPa NE 1.6 km/h 6.4 km/h 44 % 0 mm 199 W/m2
19:16 19.7 °C 7.4 °C 1012.8 hPa East 3.2 km/h 9.7 km/h 45 % 0 mm 213 W/m2
19:21 19.7 °C 7.4 °C 1012.8 hPa East 3.2 km/h 9.7 km/h 45 % 0 mm 158 W/m2
19:26 19.5 °C 7.2 °C 1012.4 hPa ENE 4.8 km/h 11.3 km/h 45 % 0 mm 186 W/m2
19:31 19.4 °C 7.2 °C 1012.8 hPa East 4.8 km/h 11.3 km/h 45 % 0 mm 149 W/m2
19:36 19.1 °C 7.5 °C 1012.8 hPa East 6.4 km/h 11.3 km/h 47 % 0 mm 100 W/m2
19:41 18.8 °C 7.2 °C 1012.8 hPa ENE 6.4 km/h 11.3 km/h 47 % 0 mm 81 W/m2
19:46 18.7 °C 7.4 °C 1012.8 hPa East 4.8 km/h 11.3 km/h 48 % 0 mm 100 W/m2
19:51 18.5 °C 7.3 °C 1012.4 hPa ENE 4.8 km/h 14.5 km/h 48 % 0 mm 98 W/m2
19:56 18.4 °C 8.4 °C 1012.4 hPa ENE 6.4 km/h 16.1 km/h 52 % 0 mm 83 W/m2
20:01 18.2 °C 9.3 °C 1012.4 hPa East 9.7 km/h 19.3 km/h 56 % 0 mm 63 W/m2
20:06 17.9 °C 9.8 °C 1012.4 hPa East 11.3 km/h 19.3 km/h 59 % 0 mm 62 W/m2
20:11 17.5 °C 9.9 °C 1012.8 hPa East 11.3 km/h 17.7 km/h 61 % 0 mm 56 W/m2
20:17 17.3 °C 10.2 °C 1012.8 hPa East 11.3 km/h 20.9 km/h 63 % 0 mm 47 W/m2
20:22 17.1 °C 10.2 °C 1012.8 hPa East 11.3 km/h 24.1 km/h 64 % 0 mm 44 W/m2
20:27 16.8 °C 10.2 °C 1012.8 hPa East 9.7 km/h 24.1 km/h 65 % 0 mm 39 W/m2
20:32 16.6 °C 10.2 °C 1012.8 hPa East 9.7 km/h 17.7 km/h 66 % 0 mm 37 W/m2
20:37 16.5 °C 10.3 °C 1012.8 hPa East 9.7 km/h 20.9 km/h 67 % 0 mm 35 W/m2
20:42 16.3 °C 10.4 °C 1012.8 hPa East 11.3 km/h 20.9 km/h 68 % 0 mm 37 W/m2
20:47 16.2 °C 10.5 °C 1012.8 hPa East 11.3 km/h 20.9 km/h 69 % 0 mm 30 W/m2
20:52 16.2 °C 10.5 °C 1012.8 hPa East 8 km/h 20.9 km/h 69 % 0 mm 23 W/m2
20:57 16.1 °C 10.4 °C 1012.8 hPa ESE 8 km/h 17.7 km/h 69 % 0 mm 16 W/m2
21:02 16.1 °C 10.6 °C 1012.8 hPa ESE 8 km/h 17.7 km/h 70 % 0 mm 12 W/m2
21:07 15.9 °C 10.4 °C 1012.8 hPa ESE 9.7 km/h 17.7 km/h 70 % 0 mm 7 W/m2
21:12 15.9 °C 10.4 °C 1012.8 hPa ESE 9.7 km/h 17.7 km/h 70 % 0 mm 5 W/m2
21:13 15.9 °C 10.4 °C 1012.8 hPa ESE 9.7 km/h 17.7 km/h 70 % 0 mm 5 W/m2
21:18 15.8 °C 10.3 °C 1012.8 hPa ESE 9.7 km/h 17.7 km/h 70 % 0 mm 0 W/m2
21:23 15.7 °C 10.2 °C 1012.8 hPa ESE 11.3 km/h 24.1 km/h 70 % 0 mm 0 W/m2
21:28 15.6 °C 10.2 °C 1012.8 hPa ESE 12.9 km/h 24.1 km/h 70 % 0 mm 0 W/m2
21:33 15.5 °C 10.1 °C 1012.8 hPa ESE 9.7 km/h 20.9 km/h 70 % 0 mm 0 W/m2
21:38 15.4 °C 9.9 °C 1012.8 hPa ESE 11.3 km/h 17.7 km/h 70 % 0 mm 0 W/m2
21:43 15.3 °C 9.8 °C 1012.8 hPa ESE 12.9 km/h 19.3 km/h 70 % 0 mm 0 W/m2
21:48 15.3 °C 9.8 °C 1013.1 hPa ESE 11.3 km/h 19.3 km/h 70 % 0 mm 0 W/m2
21:54 15.3 °C 9.8 °C 1013.1 hPa ESE 8 km/h 19.3 km/h 70 % 0 mm 0 W/m2
22:04 15.1 °C 9.4 °C 1012.8 hPa ESE 9.7 km/h 19.3 km/h 69 % 0 mm 0 W/m2
22:09 15.1 °C 9.7 °C 1013.1 hPa ESE 9.7 km/h 19.3 km/h 70 % 0 mm 0 W/m2
22:14 15.1 °C 9.7 °C 1012.8 hPa ESE 6.4 km/h 14.5 km/h 70 % 0 mm 0 W/m2
22:19 14.9 °C 9.3 °C 1012.8 hPa ESE 8 km/h 16.1 km/h 69 % 0 mm 0 W/m2
22:24 14.9 °C 9.3 °C 1013.1 hPa ESE 9.7 km/h 16.1 km/h 69 % 0 mm 0 W/m2
22:29 14.8 °C 9.2 °C 1012.8 hPa ESE 8 km/h 16.1 km/h 69 % 0 mm 0 W/m2
22:34 14.8 °C 9.2 °C 1012.8 hPa ESE 6.4 km/h 12.9 km/h 69 % 0 mm 0 W/m2
22:39 14.8 °C 8.9 °C 1012.8 hPa ESE 6.4 km/h 12.9 km/h 68 % 0 mm 0 W/m2
22:44 14.8 °C 8.9 °C 1012.8 hPa ESE 6.4 km/h 12.9 km/h 68 % 0 mm 0 W/m2
22:49 14.7 °C 8.8 °C 1012.8 hPa ESE 6.4 km/h 12.9 km/h 68 % 0 mm 0 W/m2
22:54 14.7 °C 8.8 °C 1012.8 hPa ESE 6.4 km/h 12.9 km/h 68 % 0 mm 0 W/m2
22:59 14.6 °C 8.8 °C 1012.8 hPa ESE 6.4 km/h 16.1 km/h 68 % 0 mm 0 W/m2
23:04 14.6 °C 8.8 °C 1012.8 hPa ESE 8 km/h 16.1 km/h 68 % 0 mm 0 W/m2
23:09 14.6 °C 8.8 °C 1012.8 hPa SE 8 km/h 14.5 km/h 68 % 0 mm 0 W/m2
23:14 14.6 °C 8.6 °C 1012.8 hPa ESE 6.4 km/h 12.9 km/h 67 % 0 mm 0 W/m2
23:19 14.5 °C 8.4 °C 1012.8 hPa ESE 8 km/h 12.9 km/h 67 % 0 mm 0 W/m2
23:24 14.4 °C 8.3 °C 1012.8 hPa ESE 8 km/h 14.5 km/h 67 % 0 mm 0 W/m2
23:29 14.4 °C 8.3 °C 1012.8 hPa ESE 9.7 km/h 16.1 km/h 67 % 0 mm 0 W/m2
23:34 14.3 °C 8.3 °C 1012.8 hPa ESE 9.7 km/h 16.1 km/h 67 % 0 mm 0 W/m2
23:39 14.3 °C 8.3 °C 1012.8 hPa ESE 9.7 km/h 16.1 km/h 67 % 0 mm 0 W/m2
23:44 14.2 °C 8.2 °C 1012.8 hPa ESE 11.3 km/h 16.1 km/h 67 % 0 mm 0 W/m2
23:49 14.2 °C 8.4 °C 1012.8 hPa ESE 9.7 km/h 16.1 km/h 68 % 0 mm 0 W/m2
23:55 14.2 °C 8.4 °C 1012.8 hPa ESE 8 km/h 14.5 km/h 68 % 0 mm 0 W/m2
Delerius-Weather
Compliments of Weather Underground - 2.25 mb

Data updates at regular intervals.